Time;durP1;ratioP1;P1;durP2;ratioP2;P2;SDS_P1;SDS_P2;PMS_P1;PMS_P2;Temp;Humidity;BMP_temperature;BMP_pressure;BME280_temperature;BME280_humidity;BME280_pressure;Samples;Min_cycle;Max_cycle;Signal;HPM_P1;HPM_P2
2022/02/01 00:03:09;;;;;;;;;;;6.30;99.90;;;;;;4947216;28;19927;-86
2022/02/01 00:05:56;;;;;;;;;;;6.40;99.90;;;;;;5007902;28;19931;-84
2022/02/01 00:09:02;;;;;;;;;;;6.40;99.90;;;;;;4941873;28;19927;-84
2022/02/01 00:14:32;;;;;;;;;;;6.40;99.90;;;;;;5014778;28;19941;-84
2022/02/01 00:17:44;;;;;;;;;;;6.70;99.90;;;;;;5013403;28;19933;-84
2022/02/01 00:36:54;;;;;;;;;;;6.80;99.90;;;;;;5029967;28;20001;-83
2022/02/01 00:39:30;;;;;;;;;;;6.50;99.90;;;;;;5011745;28;19936;-85
2022/02/01 00:41:58;;;;;;;;;;;6.50;99.90;;;;;;5030270;28;19939;-84
2022/02/01 00:44:29;;;;;;;;;;;6.60;99.90;;;;;;5029654;28;19926;-84
2022/02/01 00:47:00;;;;;;;;;;;6.60;99.90;;;;;;5015862;28;19932;-83
2022/02/01 00:49:33;;;;;;;;;;;6.60;99.90;;;;;;5030108;28;19926;-84
2022/02/01 00:52:01;;;;;;;;;;;6.80;99.90;;;;;;5028747;28;19936;-83
2022/02/01 00:54:30;;;;;;;;;;;6.60;99.90;;;;;;5027353;28;19926;-84
2022/02/01 00:56:58;;;;;;;;;;;6.50;99.90;;;;;;5025485;28;19929;-83
2022/02/01 00:59:26;;;;;;;;;;;6.70;99.90;;;;;;4992530;28;19940;-83
2022/02/01 01:01:56;;;;;;;;;;;6.30;99.90;;;;;;5008513;28;19929;-83
2022/02/01 01:04:47;;;;;;;;;;;6.80;99.90;;;;;;5026048;28;19933;-84
2022/02/01 01:07:15;;;;;;;;;;;6.80;99.90;;;;;;5026562;28;19925;-84
2022/02/01 01:09:43;;;;;;;;;;;6.90;99.90;;;;;;5025651;28;19929;-84
2022/02/01 01:12:13;;;;;;;;;;;7.20;99.90;;;;;;5046054;28;19929;-83
2022/02/01 01:45:28;;;;;;;;;;;7.00;99.90;;;;;;4934280;28;19934;-83
2022/02/01 01:53:32;;;;;;;;;;;7.20;99.90;;;;;;5018618;28;19938;-83
2022/02/01 01:56:01;;;;;;;;;;;7.00;99.90;;;;;;5018277;28;19931;-81
2022/02/01 01:58:28;;;;;;;;;;;7.10;99.90;;;;;;4935635;29;19935;-82
2022/02/01 02:03:31;;;;;;;;;;;7.40;99.90;;;;;;5015916;28;19931;-83
2022/02/01 02:05:59;;;;;;;;;;;7.10;99.90;;;;;;4933387;28;19938;-82
2022/02/01 02:08:30;;;;;;;;;;;7.20;99.90;;;;;;4933665;28;19931;-83
2022/02/01 02:11:09;;;;;;;;;;;7.20;99.90;;;;;;4933953;28;20363;-83
2022/02/01 02:16:38;;;;;;;;;;;7.20;99.90;;;;;;4998567;28;19927;-82
2022/02/01 02:19:07;;;;;;;;;;;7.10;99.90;;;;;;5022804;28;19939;-84
2022/02/01 02:21:35;;;;;;;;;;;7.10;99.90;;;;;;5031014;28;19926;-83
2022/02/01 02:24:03;;;;;;;;;;;7.10;99.90;;;;;;5014263;28;19929;-83
2022/02/01 02:26:33;;;;;;;;;;;8.00;99.90;;;;;;5030725;28;19940;-83
2022/02/01 02:29:03;;;;;;;;;;;7.10;99.90;;;;;;5030538;28;19929;-84
2022/02/01 02:31:33;;;;;;;;;;;7.20;99.90;;;;;;4997981;28;19933;-82
2022/02/01 02:34:07;;;;;;;;;;;7.00;99.90;;;;;;5013059;28;19933;-83
2022/02/01 02:36:43;;;;;;;;;;;6.80;99.90;;;;;;5030585;28;19925;-81
2022/02/01 02:39:26;;;;;;;;;;;7.00;99.90;;;;;;5029919;28;19929;-83
2022/02/01 02:42:27;;;;;;;;;;;7.00;99.90;;;;;;5010370;28;19932;-84
2022/02/01 02:45:09;;;;;;;;;;;7.00;99.90;;;;;;4994313;28;19925;-82
2022/02/01 02:47:38;;;;;;;;;;;7.00;99.90;;;;;;5027652;28;19925;-83
2022/02/01 02:50:06;;;;;;;;;;;7.00;99.90;;;;;;5028391;28;19925;-84
2022/02/01 02:52:34;;;;;;;;;;;7.00;99.90;;;;;;5029951;28;19932;-83
2022/02/01 02:55:03;;;;;;;;;;;7.00;99.90;;;;;;5009179;28;19956;-83
2022/02/01 02:57:33;;;;;;;;;;;7.00;99.90;;;;;;5032113;28;19925;-84
2022/02/01 03:00:01;;;;;;;;;;;7.10;99.90;;;;;;5019600;28;19926;-84
2022/02/01 03:02:33;;;;;;;;;;;7.00;99.90;;;;;;5014541;28;19925;-84
2022/02/01 03:05:01;;;;;;;;;;;7.00;99.90;;;;;;5012987;28;19926;-84
2022/02/01 03:07:31;;;;;;;;;;;7.10;99.90;;;;;;5014666;28;19925;-83
2022/02/01 03:10:02;;;;;;;;;;;7.00;99.90;;;;;;5014200;28;19925;-84
2022/02/01 03:12:57;;;;;;;;;;;7.40;99.90;;;;;;5032066;28;19925;-82
2022/02/01 03:20:38;;;;;;;;;;;7.00;99.90;;;;;;5029227;28;19925;-83
2022/02/01 03:23:09;;;;;;;;;;;7.20;99.90;;;;;;5028473;28;19936;-83
2022/02/01 03:25:37;;;;;;;;;;;7.10;99.90;;;;;;5011293;28;19926;-84
2022/02/01 03:28:05;;;;;;;;;;;8.60;99.90;;;;;;5035517;28;20361;-84
2022/02/01 03:30:38;;;;;;;;;;;7.10;99.90;;;;;;5036248;28;19925;-83
2022/02/01 03:33:06;;;;;;;;;;;7.10;99.90;;;;;;5029169;28;19930;-84
2022/02/01 03:35:35;;;;;;;;;;;7.20;99.90;;;;;;5027911;28;19931;-83
2022/02/01 03:38:05;;;;;;;;;;;7.30;99.90;;;;;;5012248;28;19930;-84
2022/02/01 03:40:36;;;;;;;;;;;7.20;99.90;;;;;;5029393;28;19925;-85
2022/02/01 03:43:07;;;;;;;;;;;7.60;99.90;;;;;;5028169;28;19940;-84
2022/02/01 03:45:35;;;;;;;;;;;7.20;99.90;;;;;;5029104;28;19926;-84
2022/02/01 03:48:14;;;;;;;;;;;7.30;99.90;;;;;;5012670;28;19926;-84
2022/02/01 03:50:45;;;;;;;;;;;7.50;99.90;;;;;;5012573;28;19929;-84
2022/02/01 03:53:18;;;;;;;;;;;7.30;99.90;;;;;;5013274;28;19940;-84
2022/02/01 03:55:49;;;;;;;;;;;7.40;99.90;;;;;;5010725;28;19926;-83
2022/02/01 03:58:30;;;;;;;;;;;7.40;99.90;;;;;;5027769;28;19925;-84
2022/02/01 04:01:01;;;;;;;;;;;7.40;99.90;;;;;;5026903;28;19926;-85
2022/02/01 04:03:34;;;;;;;;;;;7.40;99.90;;;;;;5028327;28;19933;-84
2022/02/01 04:06:06;;;;;;;;;;;6.20;99.90;;;;;;5027192;28;20317;-83
2022/02/01 04:08:37;;;;;;;;;;;7.50;99.90;;;;;;5031951;28;19939;-84
2022/02/01 04:11:06;;;;;;;;;;;7.40;99.90;;;;;;5047809;28;19935;-82
2022/02/01 04:13:35;;;;;;;;;;;7.50;99.90;;;;;;5029777;28;19936;-83
2022/02/01 04:16:05;;;;;;;;;;;7.50;99.90;;;;;;5030134;28;19931;-84
2022/02/01 04:18:34;;;;;;;;;;;7.50;99.90;;;;;;5047535;28;19933;-84
2022/02/01 04:21:03;;;;;;;;;;;7.50;99.90;;;;;;5049090;28;19925;-83
2022/02/01 04:23:41;;;;;;;;;;;7.50;99.90;;;;;;5032243;28;19925;-84
2022/02/01 04:26:09;;;;;;;;;;;7.60;99.90;;;;;;5012694;28;19936;-83
2022/02/01 04:28:46;;;;;;;;;;;7.80;99.90;;;;;;5043051;28;20024;-84
2022/02/01 04:31:15;;;;;;;;;;;7.60;99.90;;;;;;5017830;28;19936;-84
2022/02/01 04:33:47;;;;;;;;;;;7.80;99.90;;;;;;5027399;28;19932;-84
2022/02/01 04:36:16;;;;;;;;;;;8.40;99.90;;;;;;5010855;28;19939;-83
2022/02/01 04:38:57;;;;;;;;;;;7.70;99.90;;;;;;5027051;28;19931;-84
2022/02/01 04:41:29;;;;;;;;;;;7.70;99.90;;;;;;5026912;28;19926;-85
2022/02/01 04:44:03;;;;;;;;;;;7.70;99.90;;;;;;5028108;28;19925;-83
2022/02/01 04:46:34;;;;;;;;;;;7.70;99.90;;;;;;4993801;28;19961;-85
2022/02/01 04:49:09;;;;;;;;;;;7.80;99.90;;;;;;5009967;28;19925;-83
2022/02/01 04:51:41;;;;;;;;;;;7.80;99.90;;;;;;5010085;28;19925;-85
2022/02/01 04:54:12;;;;;;;;;;;7.80;99.90;;;;;;5010462;28;19926;-83
2022/02/01 04:56:43;;;;;;;;;;;7.80;99.90;;;;;;5028002;28;19926;-86
2022/02/01 04:59:11;;;;;;;;;;;7.90;99.90;;;;;;5011913;28;19932;-83
2022/02/01 05:01:54;;;;;;;;;;;7.80;99.90;;;;;;5029188;28;19929;-86
2022/02/01 05:04:25;;;;;;;;;;;8.00;99.90;;;;;;5027074;28;19925;-84
2022/02/01 05:06:54;;;;;;;;;;;7.90;99.90;;;;;;5008949;28;19932;-85
2022/02/01 05:09:25;;;;;;;;;;;7.90;99.90;;;;;;5028422;28;19925;-86
2022/02/01 05:11:55;;;;;;;;;;;7.90;99.90;;;;;;5011385;28;19929;-84
2022/02/01 05:14:27;;;;;;;;;;;8.00;99.90;;;;;;5030656;28;20392;-85
2022/02/01 05:16:59;;;;;;;;;;;6.40;99.90;;;;;;5029637;28;19932;-85
2022/02/01 05:19:57;;;;;;;;;;;8.40;99.90;;;;;;5014321;28;19936;-85
2022/02/01 05:22:26;;;;;;;;;;;7.90;99.90;;;;;;5012638;28;19936;-83
2022/02/01 05:24:55;;;;;;;;;;;8.00;99.90;;;;;;5009599;28;19936;-83
2022/02/01 05:27:28;;;;;;;;;;;8.00;99.90;;;;;;5008703;28;20508;-83
2022/02/01 05:30:02;;;;;;;;;;;8.00;99.90;;;;;;4975259;28;19937;-82
2022/02/01 05:32:33;;;;;;;;;;;6.60;99.90;;;;;;4992462;28;19925;-83
2022/02/01 05:35:03;;;;;;;;;;;8.10;99.90;;;;;;4992914;28;19940;-83
2022/02/01 05:37:34;;;;;;;;;;;8.10;99.90;;;;;;5008207;28;20246;-82
2022/02/01 05:40:05;;;;;;;;;;;8.30;99.90;;;;;;4991276;28;19934;-82
2022/02/01 05:43:22;;;;;;;;;;;8.30;99.90;;;;;;4991547;28;19941;-83
2022/02/01 05:45:34;;;;;;;;;;;8.20;99.90;;;;;;4984420;28;19932;-83
2022/02/01 05:48:02;;;;;;;;;;;8.20;99.90;;;;;;4989822;28;19937;-82
2022/02/01 05:50:30;;;;;;;;;;;8.20;99.90;;;;;;4989079;28;19930;-83
2022/02/01 05:53:19;;;;;;;;;;;8.40;99.90;;;;;;4981541;28;19933;-82
2022/02/01 05:55:50;;;;;;;;;;;8.30;99.90;;;;;;4972094;28;19933;-83
2022/02/01 05:58:28;;;;;;;;;;;8.20;99.90;;;;;;4987718;28;19932;-84
2022/02/01 06:00:56;;;;;;;;;;;8.20;99.90;;;;;;4980561;28;19930;-83
2022/02/01 06:03:28;;;;;;;;;;;6.70;99.90;;;;;;4985011;28;19930;-84
2022/02/01 06:06:01;;;;;;;;;;;8.40;99.90;;;;;;4992870;28;19932;-83
2022/02/01 06:08:31;;;;;;;;;;;8.40;99.90;;;;;;4974841;28;20405;-83
2022/02/01 06:11:14;;;;;;;;;;;8.50;99.90;;;;;;4989460;28;19936;-85
2022/02/01 06:13:43;;;;;;;;;;;8.60;99.90;;;;;;4988780;28;19936;-82
2022/02/01 06:16:24;;;;;;;;;;;7.00;99.90;;;;;;4989758;28;20205;-85
2022/02/01 06:19:04;;;;;;;;;;;8.90;99.90;;;;;;5008360;28;19940;-82
2022/02/01 06:21:32;;;;;;;;;;;8.40;99.90;;;;;;5026447;28;19952;-84
2022/02/01 06:24:01;;;;;;;;;;;8.30;99.90;;;;;;5032926;28;19925;-84
2022/02/01 06:26:57;;;;;;;;;;;8.30;99.90;;;;;;5025432;28;19925;-84
2022/02/01 06:29:27;;;;;;;;;;;8.40;99.90;;;;;;5025512;28;19936;-82
2022/02/01 06:32:21;;;;;;;;;;;8.30;99.90;;;;;;5012498;28;19940;-84
2022/02/01 06:34:58;;;;;;;;;;;8.70;99.90;;;;;;5012261;28;19927;-85
2022/02/01 06:37:29;;;;;;;;;;;8.30;99.90;;;;;;5027741;28;19961;-86
2022/02/01 06:40:01;;;;;;;;;;;8.40;99.90;;;;;;5028962;28;19925;-86
2022/02/01 06:42:35;;;;;;;;;;;8.60;99.90;;;;;;5011414;28;19927;-85
2022/02/01 06:45:05;;;;;;;;;;;8.80;99.90;;;;;;5012542;28;19926;-86
2022/02/01 06:47:37;;;;;;;;;;;8.40;99.90;;;;;;5031748;28;19926;-83
2022/02/01 06:50:08;;;;;;;;;;;8.40;99.90;;;;;;5012235;28;19926;-85
2022/02/01 06:52:36;;;;;;;;;;;8.40;99.90;;;;;;5014403;28;19932;-86
2022/02/01 06:55:24;;;;;;;;;;;8.40;99.90;;;;;;5013868;28;19925;-86
2022/02/01 06:57:54;;;;;;;;;;;8.90;99.90;;;;;;5011104;28;19940;-85
2022/02/01 07:00:35;;;;;;;;;;;8.60;99.90;;;;;;5027436;28;19936;-86
2022/02/01 07:03:21;;;;;;;;;;;8.50;99.90;;;;;;5027991;28;19932;-83
2022/02/01 07:06:12;;;;;;;;;;;8.70;99.90;;;;;;5022004;28;19932;-86
2022/02/01 07:08:53;;;;;;;;;;;8.50;99.90;;;;;;5025773;28;20291;-83
2022/02/01 07:11:24;;;;;;;;;;;8.50;99.90;;;;;;5010324;28;19940;-86
2022/02/01 07:13:57;;;;;;;;;;;8.60;99.90;;;;;;5025875;28;19929;-83
2022/02/01 07:16:35;;;;;;;;;;;8.80;99.90;;;;;;5028130;28;19929;-83
2022/02/01 07:19:44;;;;;;;;;;;8.80;99.90;;;;;;5009445;28;19936;-84
2022/02/01 07:22:48;;;;;;;;;;;8.70;99.90;;;;;;5009559;28;19932;-85
2022/02/01 07:25:47;;;;;;;;;;;8.70;99.90;;;;;;5026976;28;19929;-85
2022/02/01 07:28:18;;;;;;;;;;;8.70;99.90;;;;;;5027066;28;19936;-83
2022/02/01 07:30:52;;;;;;;;;;;8.50;99.90;;;;;;5029141;28;19927;-82
2022/02/01 07:33:24;;;;;;;;;;;7.70;99.90;;;;;;5027102;28;19932;-84
2022/02/01 07:36:15;;;;;;;;;;;8.80;99.90;;;;;;5025068;28;19929;-83
2022/02/01 07:38:58;;;;;;;;;;;8.30;99.90;;;;;;5025361;28;20501;-86
2022/02/01 07:41:42;;;;;;;;;;;8.60;99.90;;;;;;4675412;28;10000322;-80
2022/02/01 07:44:12;;;;;;;;;;;8.40;99.90;;;;;;5027879;28;19926;-83
2022/02/01 07:46:43;;;;;;;;;;;8.30;99.90;;;;;;4992105;28;20458;-81
2022/02/01 07:49:17;;;;;;;;;;;8.40;99.90;;;;;;5026647;28;19929;-84
2022/02/01 07:51:55;;;;;;;;;;;7.40;99.90;;;;;;5026705;28;19933;-83
2022/02/01 07:54:26;;;;;;;;;;;8.40;99.90;;;;;;5027652;28;19929;-83
2022/02/01 07:56:56;;;;;;;;;;;8.40;99.90;;;;;;5020116;28;19932;-82
2022/02/01 07:59:25;;;;;;;;;;;8.50;99.90;;;;;;4994837;28;19926;-83
2022/02/01 08:01:55;;;;;;;;;;;8.60;99.90;;;;;;5027042;28;19931;-81
2022/02/01 08:04:24;;;;;;;;;;;8.60;99.90;;;;;;5027477;28;19925;-83
2022/02/01 08:06:53;;;;;;;;;;;8.70;99.90;;;;;;5027791;28;19936;-83
2022/02/01 08:09:26;;;;;;;;;;;8.80;99.90;;;;;;5009919;28;19936;-83
2022/02/01 08:11:55;;;;;;;;;;;8.80;99.90;;;;;;5022959;28;19937;-82
2022/02/01 08:20:42;;;;;;;;;;;8.90;99.90;;;;;;5015915;28;19929;-83
2022/02/01 08:23:11;;;;;;;;;;;9.00;99.90;;;;;;5025900;28;19926;-82
2022/02/01 08:25:42;;;;;;;;;;;9.10;99.90;;;;;;5007629;28;19930;-83
2022/02/01 08:28:11;;;;;;;;;;;9.10;99.90;;;;;;5025013;28;20436;-83
2022/02/01 08:30:38;;;;;;;;;;;9.10;99.90;;;;;;5028302;28;19958;-82
2022/02/01 08:33:08;;;;;;;;;;;9.00;99.90;;;;;;5025411;28;19929;-82
2022/02/01 08:35:40;;;;;;;;;;;9.50;99.90;;;;;;5027443;28;19937;-83
2022/02/01 08:38:19;;;;;;;;;;;9.30;99.90;;;;;;5009045;28;19932;-82
2022/02/01 08:40:50;;;;;;;;;;;9.30;99.90;;;;;;5026276;28;20320;-83
2022/02/01 08:43:18;;;;;;;;;;;9.30;99.90;;;;;;5019678;28;19926;-83
2022/02/01 08:45:52;;;;;;;;;;;9.40;99.90;;;;;;5009194;28;19930;-83
2022/02/01 08:48:20;;;;;;;;;;;9.60;99.90;;;;;;5007920;28;19932;-84
2022/02/01 08:50:48;;;;;;;;;;;8.20;99.90;;;;;;5008150;28;20561;-83
2022/02/01 08:53:19;;;;;;;;;;;9.50;99.90;;;;;;5019215;28;20373;-83
2022/02/01 08:57:20;;;;;;;;;;;9.30;99.90;;;;;;5006683;28;19947;-83
2022/02/01 08:58:40;;;;;;;;;;;9.90;99.90;;;;;;5007975;28;19925;-83
2022/02/01 09:01:16;;;;;;;;;;;9.60;99.90;;;;;;5010375;28;20444;-82
2022/02/01 09:03:52;;;;;;;;;;;9.70;99.90;;;;;;5023467;28;19941;-83
2022/02/01 09:06:22;;;;;;;;;;;9.70;99.90;;;;;;5007890;28;20105;-83
2022/02/01 09:08:52;;;;;;;;;;;9.70;99.90;;;;;;5023542;28;19925;-83
2022/02/01 09:11:20;;;;;;;;;;;9.50;99.90;;;;;;5008167;28;19936;-83
2022/02/01 09:13:49;;;;;;;;;;;10.00;99.90;;;;;;5006499;28;19925;-83
2022/02/01 09:16:21;;;;;;;;;;;8.50;99.90;;;;;;5024067;28;20398;-83
2022/02/01 09:18:50;;;;;;;;;;;10.00;99.90;;;;;;5008770;28;19929;-83
2022/02/01 09:21:19;;;;;;;;;;;9.90;99.90;;;;;;5023460;28;19940;-83
2022/02/01 09:23:49;;;;;;;;;;;9.80;99.90;;;;;;4972543;28;19925;-83
2022/02/01 09:26:18;;;;;;;;;;;10.60;99.90;;;;;;5024480;28;20309;-83
2022/02/01 09:29:07;;;;;;;;;;;9.80;99.90;;;;;;5005179;28;19926;-83
2022/02/01 09:31:35;;;;;;;;;;;9.80;99.90;;;;;;5006347;28;19925;-83
2022/02/01 09:34:07;;;;;;;;;;;9.90;99.90;;;;;;5023030;28;19945;-84
2022/02/01 09:36:47;;;;;;;;;;;9.80;99.90;;;;;;5004250;28;19925;-84
2022/02/01 09:39:26;;;;;;;;;;;9.70;99.90;;;;;;5003618;28;19925;-83
2022/02/01 09:41:56;;;;;;;;;;;10.20;99.90;;;;;;5022426;28;19936;-83
2022/02/01 09:44:30;;;;;;;;;;;10.00;99.90;;;;;;5004044;28;19930;-84
2022/02/01 09:47:02;;;;;;;;;;;10.20;99.90;;;;;;5022406;28;19930;-84
2022/02/01 09:49:30;;;;;;;;;;;10.10;99.90;;;;;;5004596;28;19929;-84
2022/02/01 09:52:09;;;;;;;;;;;10.60;99.90;;;;;;5006682;28;19925;-84
2022/02/01 09:54:39;;;;;;;;;;;10.30;99.90;;;;;;5006276;28;19933;-84
2022/02/01 09:57:08;;;;;;;;;;;10.30;99.90;;;;;;5002303;28;19933;-84
2022/02/01 09:59:42;;;;;;;;;;;10.80;99.90;;;;;;5020475;28;19925;-84
2022/02/01 10:02:16;;;;;;;;;;;10.50;99.90;;;;;;5006498;28;19929;-85
2022/02/01 10:04:47;;;;;;;;;;;10.40;99.90;;;;;;5028019;28;19925;-84
2022/02/01 10:07:16;;;;;;;;;;;10.70;99.90;;;;;;5011162;28;19929;-85
2022/02/01 10:09:51;;;;;;;;;;;10.60;99.90;;;;;;5011268;28;20241;-84
2022/02/01 10:12:28;;;;;;;;;;;10.50;99.90;;;;;;5010568;28;19929;-84
2022/02/01 10:15:17;;;;;;;;;;;10.70;99.90;;;;;;5010212;28;19929;-83
2022/02/01 10:17:48;;;;;;;;;;;10.80;99.90;;;;;;5020388;28;19925;-84
2022/02/01 10:20:25;;;;;;;;;;;10.80;99.90;;;;;;5012061;28;19936;-84
2022/02/01 10:22:56;;;;;;;;;;;10.80;99.90;;;;;;5006725;28;19934;-83
2022/02/01 10:25:29;;;;;;;;;;;11.00;99.90;;;;;;5010779;28;20015;-83
2022/02/01 10:27:58;;;;;;;;;;;10.90;99.90;;;;;;5008189;28;19937;-84
2022/02/01 10:30:56;;;;;;;;;;;11.10;99.90;;;;;;5027118;28;19925;-83
2022/02/01 10:33:52;;;;;;;;;;;11.00;99.90;;;;;;5009386;28;19935;-84
2022/02/01 10:36:22;;;;;;;;;;;11.10;99.90;;;;;;4929181;28;19938;-85
2022/02/01 10:38:57;;;;;;;;;;;9.40;99.90;;;;;;5010182;28;19931;-84
2022/02/01 10:41:32;;;;;;;;;;;11.20;99.90;;;;;;4928078;29;19927;-84
2022/02/01 10:44:00;;;;;;;;;;;10.70;99.90;;;;;;5002679;28;19933;-85
2022/02/01 10:46:49;;;;;;;;;;;11.30;99.90;;;;;;4997614;28;19931;-85
2022/02/01 10:49:55;;;;;;;;;;;11.80;99.90;;;;;;4993948;28;19954;-84
2022/02/01 10:53:06;;;;;;;;;;;11.50;99.90;;;;;;4982233;28;19928;-84
2022/02/01 10:55:54;;;;;;;;;;;11.20;99.90;;;;;;4980744;28;19946;-84
2022/02/01 10:58:36;;;;;;;;;;;11.60;99.90;;;;;;5011909;28;20399;-84
2022/02/01 11:01:32;;;;;;;;;;;11.70;99.90;;;;;;4969079;28;19958;-84
2022/02/01 11:04:11;;;;;;;;;;;12.00;99.90;;;;;;5019224;28;19928;-85
2022/02/01 11:06:47;;;;;;;;;;;11.70;99.90;;;;;;5006107;28;19937;-85
2022/02/01 11:09:36;;;;;;;;;;;12.20;99.90;;;;;;5012619;28;20133;-83
2022/02/01 11:12:10;;;;;;;;;;;12.30;99.90;;;;;;5023906;28;20375;-85
2022/02/01 11:14:46;;;;;;;;;;;12.90;99.90;;;;;;4948300;28;20097;-85
2022/02/01 11:17:24;;;;;;;;;;;12.10;99.90;;;;;;5009851;28;20295;-84
2022/02/01 11:19:56;;;;;;;;;;;11.50;99.90;;;;;;4929802;28;19927;-84
2022/02/01 11:22:53;;;;;;;;;;;12.40;99.90;;;;;;5022439;28;19936;-85
2022/02/01 11:25:28;;;;;;;;;;;12.20;99.90;;;;;;5027067;28;19930;-84
2022/02/01 11:30:35;;;;;;;;;;;12.60;99.90;;;;;;5027290;28;19925;-84
2022/02/01 11:33:10;;;;;;;;;;;12.30;99.90;;;;;;5025454;28;20173;-85
2022/02/01 11:35:58;;;;;;;;;;;12.50;99.90;;;;;;5026938;28;19930;-85
2022/02/01 11:38:48;;;;;;;;;;;12.60;99.90;;;;;;5010960;28;20245;-84
2022/02/01 11:41:41;;;;;;;;;;;12.70;99.90;;;;;;5011049;28;19926;-84
2022/02/01 11:44:25;;;;;;;;;;;12.70;99.90;;;;;;5010157;28;19926;-85
2022/02/01 11:47:07;;;;;;;;;;;12.70;99.90;;;;;;5028197;28;19928;-85
2022/02/01 11:49:49;;;;;;;;;;;12.90;99.90;;;;;;4679766;28;10000770;-84
2022/02/01 11:52:40;;;;;;;;;;;12.90;99.90;;;;;;5023833;28;19930;-84
2022/02/01 11:55:10;;;;;;;;;;;12.80;99.90;;;;;;5012808;28;19929;-83
2022/02/01 11:58:01;;;;;;;;;;;14.00;99.90;;;;;;4992099;28;19934;-84
2022/02/01 12:00:36;;;;;;;;;;;12.90;99.90;;;;;;5026356;28;20174;-82
2022/02/01 12:03:04;;;;;;;;;;;13.10;99.90;;;;;;5028328;28;19929;-83
2022/02/01 12:05:34;;;;;;;;;;;13.10;99.90;;;;;;5021980;28;19925;-83
2022/02/01 12:08:14;;;;;;;;;;;13.20;99.90;;;;;;5007744;28;19929;-82
2022/02/01 12:10:47;;;;;;;;;;;13.50;99.90;;;;;;5027790;28;19929;-83
2022/02/01 12:13:20;;;;;;;;;;;13.30;99.90;;;;;;5010587;28;19929;-85
2022/02/01 12:15:51;;;;;;;;;;;13.50;99.90;;;;;;5023823;28;19925;-82
2022/02/01 12:18:38;;;;;;;;;;;13.50;99.90;;;;;;5008698;28;20318;-83
2022/02/01 12:21:25;;;;;;;;;;;13.60;99.90;;;;;;5004403;28;19937;-83
2022/02/01 12:23:55;;;;;;;;;;;13.60;99.90;;;;;;5023426;28;19949;-83
2022/02/01 12:26:25;;;;;;;;;;;12.40;99.90;;;;;;5010715;28;19936;-82
2022/02/01 12:28:54;;;;;;;;;;;13.80;99.90;;;;;;5023814;28;19944;-83
2022/02/01 12:31:27;;;;;;;;;;;13.90;99.90;;;;;;5026200;28;19932;-82
2022/02/01 12:33:56;;;;;;;;;;;13.80;99.90;;;;;;5002292;28;20037;-82
2022/02/01 12:36:37;;;;;;;;;;;13.80;99.90;;;;;;4992588;28;19929;-82
2022/02/01 12:39:16;;;;;;;;;;;15.10;99.90;;;;;;5026203;28;19930;-82
2022/02/01 12:41:53;;;;;;;;;;;13.80;99.90;;;;;;5025232;28;19948;-84
2022/02/01 12:47:02;;;;;;;;;;;14.00;99.90;;;;;;5021769;28;19926;-83
2022/02/01 12:49:36;;;;;;;;;;;14.10;99.90;;;;;;5021395;28;19932;-83
2022/02/01 12:52:05;;;;;;;;;;;14.20;99.90;;;;;;5023523;28;20476;-86
2022/02/01 12:54:38;;;;;;;;;;;14.20;99.90;;;;;;5008693;28;19931;-83
2022/02/01 12:57:08;;;;;;;;;;;14.20;99.90;;;;;;4995485;28;20264;-84
2022/02/01 12:59:52;;;;;;;;;;;14.20;99.90;;;;;;5009088;28;19926;-86
2022/02/01 13:02:22;;;;;;;;;;;13.80;99.90;;;;;;4989567;28;19930;-84
2022/02/01 13:04:55;;;;;;;;;;;14.30;99.90;;;;;;4988585;28;20218;-85
2022/02/01 13:07:45;;;;;;;;;;;15.50;99.90;;;;;;5010619;28;19930;-83
2022/02/01 13:13:51;;;;;;;;;;;14.30;99.90;;;;;;5023879;28;19932;-84
2022/02/01 13:16:19;;;;;;;;;;;14.30;99.90;;;;;;4998390;28;19937;-82
2022/02/01 13:21:18;;;;;;;;;;;14.30;99.90;;;;;;5023702;28;19925;-84
2022/02/01 13:23:47;;;;;;;;;;;14.30;99.90;;;;;;5005872;28;19961;-84
2022/02/01 13:26:19;;;;;;;;;;;14.30;99.90;;;;;;4925082;29;19938;-83
2022/02/01 13:29:06;;;;;;;;;;;14.30;99.90;;;;;;4935344;28;19931;-82
2022/02/01 13:31:35;;;;;;;;;;;14.30;99.90;;;;;;4928725;29;19938;-84
2022/02/01 13:34:05;;;;;;;;;;;15.60;99.90;;;;;;4990207;28;19934;-83
2022/02/01 13:36:45;;;;;;;;;;;14.40;99.90;;;;;;4991742;28;19923;-82
2022/02/01 13:39:35;;;;;;;;;;;14.40;99.90;;;;;;5007390;28;19927;-83
2022/02/01 13:42:11;;;;;;;;;;;14.50;99.90;;;;;;4907416;29;19928;-83
2022/02/01 13:45:08;;;;;;;;;;;14.50;99.90;;;;;;4978996;28;19933;-83
2022/02/01 13:47:37;;;;;;;;;;;14.60;99.90;;;;;;4992456;28;19959;-82
2022/02/01 13:50:08;;;;;;;;;;;14.60;99.90;;;;;;4991689;28;19931;-82
2022/02/01 13:52:38;;;;;;;;;;;14.60;99.90;;;;;;5008135;28;19930;-82
2022/02/01 13:55:20;;;;;;;;;;;14.60;99.90;;;;;;5008168;28;19936;-83
2022/02/01 13:57:52;;;;;;;;;;;14.70;99.90;;;;;;5005674;28;19926;-84
2022/02/01 14:00:22;;;;;;;;;;;14.60;99.90;;;;;;5015012;28;19926;-83
2022/02/01 14:02:57;;;;;;;;;;;14.60;99.90;;;;;;4990467;28;20271;-82
2022/02/01 14:05:29;;;;;;;;;;;14.50;99.90;;;;;;5006096;28;19927;-84
2022/02/01 14:26:54;;;;;;;;;;;14.30;99.90;;;;;;4995702;28;19925;-84
2022/02/01 14:34:41;;;;;;;;;;;14.30;99.90;;;;;;5020784;28;19937;-84
2022/02/01 14:37:25;;;;;;;;;;;14.30;99.90;;;;;;5022634;28;19926;-84
2022/02/01 14:45:16;;;;;;;;;;;14.40;99.90;;;;;;5002744;28;19926;-83
2022/02/01 14:47:46;;;;;;;;;;;14.30;99.90;;;;;;5017295;28;20234;-83
2022/02/01 14:50:16;;;;;;;;;;;14.40;99.90;;;;;;5016674;28;20016;-84
2022/02/01 14:52:44;;;;;;;;;;;14.50;99.90;;;;;;5005124;28;19926;-84
2022/02/01 14:55:14;;;;;;;;;;;14.10;99.90;;;;;;5006244;28;19929;-84
2022/02/01 15:11:26;;;;;;;;;;;14.60;99.90;;;;;;5027640;28;19933;-83
2022/02/01 15:13:57;;;;;;;;;;;14.60;99.90;;;;;;5007890;28;19926;-85
2022/02/01 15:16:31;;;;;;;;;;;14.70;99.90;;;;;;5027258;28;19929;-84
2022/02/01 15:19:08;;;;;;;;;;;14.00;99.90;;;;;;5009796;28;19933;-84
2022/02/01 15:21:42;;;;;;;;;;;14.90;99.90;;;;;;5012707;28;19933;-84
2022/02/01 15:25:12;;;;;;;;;;;15.10;99.90;;;;;;5016919;28;19926;-83
2022/02/01 15:27:43;;;;;;;;;;;15.50;99.90;;;;;;4994535;28;19941;-86
2022/02/01 15:30:20;;;;;;;;;;;16.80;99.90;;;;;;5004331;28;19966;-87
2022/02/01 15:33:13;;;;;;;;;;;15.60;99.90;;;;;;4992444;28;19931;-86
2022/02/01 15:36:16;;;;;;;;;;;;;;;;;;;;;
2022/02/01 15:54:30;;;;;;;;;;;15.50;99.90;;;;;;5010259;28;19935;-84
2022/02/01 15:57:50;;;;;;;;;;;14.90;99.90;;;;;;4975158;28;19927;-83
2022/02/01 16:00:23;;;;;;;;;;;14.90;99.90;;;;;;5007757;28;19931;-83
2022/02/01 16:03:25;;;;;;;;;;;14.70;99.90;;;;;;4932387;28;19928;-85
2022/02/01 16:05:51;;;;;;;;;;;14.70;99.90;;;;;;5006948;28;19931;-85
2022/02/01 16:08:36;;;;;;;;;;;14.60;99.90;;;;;;4996332;28;19914;-84
2022/02/01 16:11:08;;;;;;;;;;;14.60;99.90;;;;;;4986352;28;19942;-84
2022/02/01 16:13:39;;;;;;;;;;;14.70;99.90;;;;;;5006234;28;19945;-84
2022/02/01 16:16:10;;;;;;;;;;;14.50;99.90;;;;;;5000625;28;19931;-84
2022/02/01 16:18:39;;;;;;;;;;;14.50;99.90;;;;;;5000647;28;19939;-83
2022/02/01 16:21:07;;;;;;;;;;;14.40;99.90;;;;;;5005170;28;19930;-84
2022/02/01 16:23:56;;;;;;;;;;;14.50;99.90;;;;;;4986455;28;20241;-84
2022/02/01 16:26:25;;;;;;;;;;;14.40;99.90;;;;;;4992790;28;20601;-86
2022/02/01 16:28:53;;;;;;;;;;;14.30;99.90;;;;;;4982483;28;20180;-85
2022/02/01 16:31:26;;;;;;;;;;;13.70;99.90;;;;;;5004945;28;19942;-83
2022/02/01 16:34:04;;;;;;;;;;;14.20;99.90;;;;;;4995174;28;19941;-83
2022/02/01 16:36:40;;;;;;;;;;;14.30;99.90;;;;;;4992527;28;19942;-82
2022/02/01 16:39:11;;;;;;;;;;;14.10;99.90;;;;;;5014403;28;19942;-85
2022/02/01 16:41:42;;;;;;;;;;;14.10;99.90;;;;;;5008973;28;19931;-83
2022/02/01 16:44:30;;;;;;;;;;;14.10;99.90;;;;;;4984420;28;19935;-84
2022/02/01 16:47:00;;;;;;;;;;;14.10;99.90;;;;;;4988412;28;19931;-84
2022/02/01 16:49:28;;;;;;;;;;;13.90;99.90;;;;;;4939059;28;19935;-84
2022/02/01 16:52:01;;;;;;;;;;;14.00;99.90;;;;;;5010575;28;19943;-84
2022/02/01 16:54:41;;;;;;;;;;;13.40;99.90;;;;;;4656949;28;10000735;-83
2022/02/01 16:57:12;;;;;;;;;;;13.70;99.90;;;;;;4999282;28;19938;-85
2022/02/01 16:59:43;;;;;;;;;;;14.20;99.90;;;;;;4973749;28;19943;-86
2022/02/01 17:02:16;;;;;;;;;;;12.80;99.90;;;;;;4989932;28;19931;-84
2022/02/01 17:04:47;;;;;;;;;;;14.10;99.90;;;;;;4934029;28;19927;-84
2022/02/01 17:07:59;;;;;;;;;;;;;;;;;;;;;
2022/02/01 17:11:50;;;;;;;;;;;13.60;99.90;;;;;;4945656;28;20003;-86
2022/02/01 17:15:04;;;;;;;;;;;13.70;99.90;;;;;;4920093;28;19942;-85
2022/02/01 17:18:35;;;;;;;;;;;13.50;99.90;;;;;;5001794;28;19929;-86
2022/02/01 17:21:34;;;;;;;;;;;13.60;99.90;;;;;;4987191;28;19931;-85
2022/02/01 17:24:17;;;;;;;;;;;13.50;99.90;;;;;;4986615;28;19937;-84
2022/02/01 17:26:57;;;;;;;;;;;13.60;99.90;;;;;;4924477;28;19942;-84
2022/02/01 17:29:35;;;;;;;;;;;13.60;99.90;;;;;;4980422;28;19928;-86
2022/02/01 17:32:06;;;;;;;;;;;13.20;99.90;;;;;;4951582;28;19933;-84
2022/02/01 17:35:13;;;;;;;;;;;;;;;;;;;;;
2022/02/01 17:37:49;;;;;;;;;;;13.10;99.90;;;;;;4990178;28;19927;-84
2022/02/01 17:40:37;;;;;;;;;;;13.10;99.90;;;;;;4938264;28;19927;-85
2022/02/01 17:43:36;;;;;;;;;;;11.50;99.90;;;;;;5000002;28;19927;-84